createdAt,value
2018-03-28T00:01:47.835Z,1.30
2018-03-28T00:04:14.374Z,1.30
2018-03-28T00:06:40.801Z,1.40
2018-03-28T00:09:07.237Z,1.80
2018-03-28T00:11:33.731Z,1.80
2018-03-28T00:14:00.155Z,1.80
2018-03-28T00:16:26.630Z,1.90
2018-03-28T00:18:53.053Z,1.90
2018-03-28T00:21:19.471Z,2.10
2018-03-28T00:23:46.640Z,2.00
2018-03-28T00:26:13.065Z,1.90
2018-03-28T00:28:39.522Z,1.90
2018-03-28T00:31:06.029Z,2.00
2018-03-28T00:33:32.473Z,2.10
2018-03-28T00:35:58.898Z,2.50
2018-03-28T00:38:25.342Z,2.60
2018-03-28T00:40:51.777Z,2.80
2018-03-28T00:43:18.207Z,2.60
2018-03-28T00:45:44.636Z,2.40
2018-03-28T00:48:11.059Z,2.30
2018-03-28T00:50:37.492Z,2.40
2018-03-28T00:53:03.923Z,2.50
2018-03-28T00:55:31.112Z,2.60
2018-03-28T00:57:57.515Z,2.60
2018-03-28T01:00:23.965Z,2.80
2018-03-28T01:02:50.416Z,2.90
2018-03-28T01:05:16.955Z,3.00
2018-03-28T01:07:43.430Z,2.90
2018-03-28T01:10:09.935Z,2.70
2018-03-28T01:12:37.195Z,2.30
2018-03-28T01:15:04.461Z,2.30
2018-03-28T01:17:31.700Z,2.20
2018-03-28T01:19:58.184Z,2.20
2018-03-28T01:22:24.744Z,2.20
2018-03-28T01:24:51.247Z,2.20
2018-03-28T01:27:17.783Z,2.10
2018-03-28T01:29:45.027Z,2.10
2018-03-28T01:32:12.259Z,2.10
2018-03-28T01:34:39.537Z,2.10
2018-03-28T01:37:06.768Z,2.10
2018-03-28T01:39:33.283Z,2.10
2018-03-28T01:42:00.542Z,2.10
2018-03-28T01:44:27.069Z,2.20
2018-03-28T01:46:53.556Z,2.20
2018-03-28T01:49:20.079Z,2.10
2018-03-28T01:51:46.631Z,2.30
2018-03-28T01:54:13.156Z,2.30
2018-03-28T01:56:39.632Z,2.30
2018-03-28T01:59:06.914Z,3.00
2018-03-28T02:01:33.412Z,3.00
2018-03-28T02:03:59.934Z,3.20
2018-03-28T02:06:26.424Z,3.00
2018-03-28T02:08:52.903Z,3.20
2018-03-28T02:11:19.404Z,3.30
2018-03-28T02:13:46.698Z,3.70
2018-03-28T02:16:13.186Z,3.70
2018-03-28T02:18:40.425Z,3.80
2018-03-28T02:21:11.078Z,3.70
2018-03-28T02:23:38.314Z,3.80
2018-03-28T02:26:04.849Z,3.80
2018-03-28T02:28:31.347Z,3.50
2018-03-28T02:30:57.843Z,3.30
2018-03-28T02:33:24.372Z,3.20
2018-03-28T02:35:51.658Z,3.00
2018-03-28T02:38:18.220Z,3.00
2018-03-28T02:40:44.729Z,3.10
2018-03-28T02:43:11.219Z,2.90
2018-03-28T02:45:37.708Z,2.90
2018-03-28T02:48:04.182Z,2.80
2018-03-28T02:50:30.654Z,2.70
2018-03-28T02:52:57.162Z,2.70
2018-03-28T02:55:23.691Z,2.60
2018-03-28T02:57:50.198Z,2.60
2018-03-28T03:00:16.712Z,2.50
2018-03-28T03:02:43.210Z,2.50
2018-03-28T03:05:09.709Z,2.50
2018-03-28T03:07:36.942Z,2.60
2018-03-28T03:10:03.446Z,2.50
2018-03-28T03:12:29.961Z,2.60
2018-03-28T03:14:57.203Z,2.60
2018-03-28T03:17:23.686Z,2.60
2018-03-28T03:19:50.239Z,2.50
2018-03-28T03:22:16.758Z,2.50
2018-03-28T03:24:43.246Z,2.60
2018-03-28T03:27:10.540Z,2.50
2018-03-28T03:29:37.026Z,2.50
2018-03-28T03:32:03.503Z,2.50
2018-03-28T03:34:30.050Z,2.60
2018-03-28T03:36:56.576Z,2.60
2018-03-28T03:39:23.069Z,2.60
2018-03-28T03:41:49.606Z,2.60
2018-03-28T03:44:16.085Z,2.70
2018-03-28T03:46:42.584Z,2.60
2018-03-28T03:49:09.069Z,2.60
2018-03-28T03:51:35.550Z,2.60
2018-03-28T03:54:02.036Z,2.60
2018-03-28T03:56:28.617Z,2.60
2018-03-28T03:58:55.133Z,2.60
2018-03-28T04:01:21.621Z,2.60
2018-03-28T04:03:48.160Z,2.60
2018-03-28T04:06:14.702Z,2.60
2018-03-28T04:08:41.307Z,2.60
2018-03-28T04:11:08.593Z,2.60
2018-03-28T04:13:35.082Z,2.60
2018-03-28T04:16:01.577Z,2.60
2018-03-28T04:18:28.054Z,2.70
2018-03-28T04:20:54.566Z,2.70
2018-03-28T04:23:21.113Z,2.70
2018-03-28T04:25:47.597Z,2.70
2018-03-28T04:28:14.090Z,2.70
2018-03-28T04:30:40.634Z,2.70
2018-03-28T04:33:07.132Z,2.70
2018-03-28T04:35:33.645Z,2.70
2018-03-28T04:38:00.118Z,2.70
2018-03-28T04:40:26.668Z,2.70
2018-03-28T04:42:53.186Z,2.80
2018-03-28T04:45:19.678Z,2.80
2018-03-28T04:47:46.232Z,2.90
2018-03-28T04:50:12.787Z,2.90
2018-03-28T04:52:39.342Z,2.90
2018-03-28T04:55:05.828Z,2.90
2018-03-28T04:57:32.313Z,2.90
2018-03-28T04:59:58.934Z,2.90
2018-03-28T05:02:25.456Z,2.80
2018-03-28T05:04:51.957Z,2.80
2018-03-28T05:07:18.413Z,2.80
2018-03-28T05:09:44.942Z,2.80
2018-03-28T05:12:11.419Z,2.80
2018-03-28T05:14:37.908Z,2.80
2018-03-28T05:17:04.418Z,2.80
2018-03-28T05:19:30.979Z,2.90
2018-03-28T05:21:57.502Z,2.90
2018-03-28T05:24:24.067Z,2.90
2018-03-28T05:26:50.551Z,2.90
2018-03-28T05:29:17.086Z,2.90
2018-03-28T05:31:43.566Z,3.00
2018-03-28T05:34:10.062Z,3.00
2018-03-28T05:36:37.294Z,3.10
2018-03-28T05:39:04.816Z,3.10
2018-03-28T05:41:31.360Z,3.10
2018-03-28T05:43:57.849Z,3.10
2018-03-28T05:46:25.118Z,3.20
2018-03-28T05:48:51.624Z,3.10
2018-03-28T05:51:18.870Z,3.10
2018-03-28T05:53:45.429Z,3.10
2018-03-28T05:56:12.013Z,3.20
2018-03-28T05:58:38.488Z,3.20
2018-03-28T06:01:05.009Z,3.30
2018-03-28T06:03:31.512Z,3.40
2018-03-28T06:05:58.118Z,3.40
2018-03-28T06:08:24.654Z,3.50
2018-03-28T06:10:51.150Z,3.50
2018-03-28T06:13:17.610Z,3.50
2018-03-28T06:15:44.836Z,3.60
2018-03-28T06:18:11.341Z,3.60
2018-03-28T06:20:37.887Z,3.70
2018-03-28T06:23:05.186Z,3.90
2018-03-28T06:25:32.432Z,3.90
2018-03-28T06:27:59.652Z,4.10
2018-03-28T06:30:26.258Z,4.00
2018-03-28T06:32:52.877Z,4.10
2018-03-28T06:35:19.391Z,4.30
2018-03-28T06:37:46.642Z,4.50
2018-03-28T06:40:13.910Z,4.60
2018-03-28T06:42:41.130Z,4.70
2018-03-28T06:45:08.377Z,4.80
2018-03-28T06:47:35.588Z,4.90
2018-03-28T06:50:02.070Z,4.80
2018-03-28T06:52:28.658Z,5.00
2018-03-28T06:54:55.149Z,5.20
2018-03-28T06:57:21.675Z,5.30
2018-03-28T06:59:48.177Z,5.40
2018-03-28T07:02:14.723Z,5.60
2018-03-28T07:04:41.280Z,5.70
2018-03-28T07:07:07.787Z,5.80
2018-03-28T07:09:34.307Z,6.00
2018-03-28T07:12:00.820Z,6.30
2018-03-28T07:14:27.418Z,6.30
2018-03-28T07:16:53.888Z,6.60
2018-03-28T07:19:21.304Z,7.70
2018-03-28T07:21:47.796Z,7.70
2018-03-28T07:24:14.367Z,7.70
2018-03-28T07:26:41.024Z,7.90
2018-03-28T07:29:07.513Z,8.20
2018-03-28T07:31:34.034Z,9.00
2018-03-28T07:34:00.559Z,8.40
2018-03-28T07:36:27.783Z,9.40
2018-03-28T07:38:54.253Z,9.30
2018-03-28T07:41:21.503Z,10.30
2018-03-28T07:43:48.842Z,10.10
2018-03-28T07:46:15.302Z,10.10
2018-03-28T07:48:41.777Z,9.70
2018-03-28T07:51:08.281Z,8.80
2018-03-28T07:53:35.003Z,8.60
2018-03-28T07:56:01.482Z,8.00
2018-03-28T07:58:28.000Z,8.30
2018-03-28T08:00:54.520Z,8.10
2018-03-28T08:03:21.044Z,8.40
2018-03-28T08:05:47.537Z,8.50
2018-03-28T08:08:14.665Z,8.20
2018-03-28T08:10:41.150Z,8.00
2018-03-28T08:13:07.621Z,8.20
2018-03-28T08:15:34.112Z,8.90
2018-03-28T08:18:00.600Z,9.30
2018-03-28T08:20:27.091Z,10.20
2018-03-28T08:22:54.472Z,10.00
2018-03-28T08:25:21.020Z,10.00
2018-03-28T08:27:47.537Z,9.80
2018-03-28T08:30:14.093Z,9.60
2018-03-28T08:32:40.582Z,10.50
2018-03-28T08:35:07.817Z,11.20
2018-03-28T08:37:34.312Z,11.20
2018-03-28T08:40:00.885Z,10.60
2018-03-28T08:42:27.393Z,10.70
2018-03-28T08:44:53.899Z,11.80
2018-03-28T08:47:20.420Z,11.40
2018-03-28T08:49:47.674Z,11.90
2018-03-28T08:52:14.945Z,12.90
2018-03-28T08:54:41.498Z,13.00
2018-03-28T08:57:08.010Z,12.70
2018-03-28T08:59:34.539Z,13.40
2018-03-28T09:02:01.784Z,13.30
2018-03-28T09:04:29.002Z,12.90
2018-03-28T09:06:55.523Z,12.80
2018-03-28T09:09:22.037Z,11.50
2018-03-28T09:11:48.579Z,11.60
2018-03-28T09:14:15.080Z,10.60
2018-03-28T09:16:42.312Z,10.70
2018-03-28T09:19:08.860Z,10.60
2018-03-28T09:21:35.359Z,10.80
2018-03-28T09:24:01.851Z,11.40
2018-03-28T09:26:28.389Z,11.60
2018-03-28T09:28:54.897Z,12.30
2018-03-28T09:31:21.369Z,12.20
2018-03-28T09:33:47.882Z,12.60
2018-03-28T09:36:15.090Z,11.90
2018-03-28T09:38:41.550Z,11.90
2018-03-28T09:41:08.052Z,12.00
2018-03-28T09:43:34.558Z,12.60
2018-03-28T09:46:01.111Z,12.80
2018-03-28T09:48:27.573Z,12.60
2018-03-28T09:50:54.080Z,12.40
2018-03-28T09:53:20.566Z,11.90
2018-03-28T09:55:47.803Z,11.40
2018-03-28T09:58:14.351Z,11.40
2018-03-28T10:00:40.951Z,11.60
2018-03-28T10:03:11.509Z,11.80
2018-03-28T10:05:38.026Z,11.70
2018-03-28T10:08:04.497Z,11.70
2018-03-28T10:10:31.711Z,12.20
2018-03-28T10:12:58.184Z,12.20
2018-03-28T10:15:25.392Z,11.90
2018-03-28T10:17:52.598Z,12.10
2018-03-28T10:20:19.073Z,12.10
2018-03-28T10:22:45.549Z,12.00
2018-03-28T10:25:12.787Z,12.50
2018-03-28T10:27:39.261Z,12.50
2018-03-28T10:30:05.764Z,13.00
2018-03-28T10:32:32.264Z,12.90
2018-03-28T10:34:58.797Z,12.80
2018-03-28T10:37:25.274Z,13.00
2018-03-28T10:39:51.760Z,12.60
2018-03-28T10:42:18.315Z,12.50
2018-03-28T10:44:44.800Z,12.50
2018-03-28T10:47:12.032Z,13.20
2018-03-28T10:49:39.262Z,13.30
2018-03-28T10:52:05.780Z,13.30
2018-03-28T10:54:32.302Z,13.80
2018-03-28T10:56:58.784Z,14.20
2018-03-28T10:59:25.307Z,15.10
2018-03-28T11:01:51.805Z,15.40
2018-03-28T11:04:18.374Z,14.90
2018-03-28T11:06:44.883Z,15.10
2018-03-28T11:09:11.376Z,15.10
2018-03-28T11:11:38.623Z,14.40
2018-03-28T11:14:05.847Z,14.30
2018-03-28T11:16:32.353Z,14.20
2018-03-28T11:18:58.837Z,14.10
2018-03-28T11:21:25.308Z,14.20
2018-03-28T11:23:51.810Z,14.60
2018-03-28T11:26:19.031Z,15.20
2018-03-28T11:28:46.255Z,15.10
2018-03-28T11:31:12.735Z,15.00
2018-03-28T11:33:39.228Z,14.70
2018-03-28T11:36:05.701Z,14.30
2018-03-28T11:38:32.214Z,14.20
2018-03-28T11:40:59.423Z,14.10
2018-03-28T11:43:26.659Z,14.50
2018-03-28T11:45:53.900Z,15.40
2018-03-28T11:48:20.420Z,15.30
2018-03-28T11:50:46.979Z,16.10
2018-03-28T11:53:13.445Z,16.50
2018-03-28T11:55:39.940Z,16.90
2018-03-28T11:58:06.448Z,16.60
2018-03-28T12:00:32.937Z,16.00
2018-03-28T12:02:59.408Z,16.80
2018-03-28T12:05:25.889Z,16.10
2018-03-28T12:07:52.415Z,17.20
2018-03-28T12:10:18.905Z,17.90
2018-03-28T12:12:45.360Z,18.10
2018-03-28T12:15:11.852Z,18.10
2018-03-28T12:17:38.361Z,17.80
2018-03-28T12:20:04.860Z,16.80
2018-03-28T12:22:31.340Z,16.30
2018-03-28T12:24:58.585Z,16.60
2018-03-28T12:27:25.808Z,16.20
2018-03-28T12:29:52.304Z,16.20
2018-03-28T12:32:18.849Z,16.50
2018-03-28T12:34:45.338Z,16.90
2018-03-28T12:37:12.580Z,18.20
2018-03-28T12:39:39.080Z,18.20
2018-03-28T12:42:05.590Z,17.80
2018-03-28T12:44:32.130Z,17.90
2018-03-28T12:46:58.648Z,17.20
2018-03-28T12:49:25.867Z,18.00
2018-03-28T12:51:52.411Z,18.00
2018-03-28T12:54:18.896Z,17.00
2018-03-28T12:56:45.377Z,16.50
2018-03-28T12:59:11.868Z,16.70
2018-03-28T13:01:38.368Z,17.80
2018-03-28T13:04:05.606Z,16.50
2018-03-28T13:06:32.080Z,16.40
2018-03-28T13:08:58.612Z,17.40
2018-03-28T13:11:25.098Z,16.90
2018-03-28T13:13:53.289Z,16.80
2018-03-28T13:16:19.793Z,16.80
2018-03-28T13:18:46.254Z,17.00
2018-03-28T13:21:12.737Z,16.40
2018-03-28T13:23:39.220Z,16.20
2018-03-28T13:26:05.712Z,15.70
2018-03-28T13:28:32.208Z,15.30
2018-03-28T13:30:59.488Z,15.20
2018-03-28T13:33:25.952Z,15.20
2018-03-28T13:35:52.466Z,15.20
2018-03-28T13:38:18.945Z,15.10
2018-03-28T13:40:45.462Z,14.80
2018-03-28T13:43:11.949Z,14.60
2018-03-28T13:45:38.485Z,14.70
2018-03-28T13:48:05.692Z,14.60
2018-03-28T13:50:32.217Z,14.50
2018-03-28T13:52:58.715Z,14.60
2018-03-28T13:55:25.251Z,14.20
2018-03-28T13:57:51.743Z,14.30
2018-03-28T14:00:18.242Z,14.30
2018-03-28T14:02:44.766Z,14.40
2018-03-28T14:05:11.247Z,14.60
2018-03-28T14:07:37.729Z,14.90
2018-03-28T14:10:04.226Z,15.30
2018-03-28T14:12:30.719Z,15.60
2018-03-28T14:14:57.184Z,15.40
2018-03-28T14:17:23.654Z,15.00
2018-03-28T14:19:50.196Z,14.80
2018-03-28T14:22:16.708Z,14.70
2018-03-28T14:24:43.943Z,14.40
2018-03-28T14:27:10.467Z,14.40
2018-03-28T14:29:37.676Z,13.80
2018-03-28T14:32:04.140Z,13.80
2018-03-28T14:34:30.705Z,13.70
2018-03-28T14:36:57.178Z,13.50
2018-03-28T14:39:23.692Z,13.50
2018-03-28T14:41:51.064Z,13.50
2018-03-28T14:44:17.586Z,13.50
2018-03-28T14:46:44.825Z,13.40
2018-03-28T14:49:11.333Z,13.40
2018-03-28T14:51:37.855Z,13.40
2018-03-28T14:54:04.338Z,13.30
2018-03-28T14:56:32.025Z,13.20
2018-03-28T14:58:58.528Z,13.20
2018-03-28T15:01:25.771Z,13.20
2018-03-28T15:03:52.313Z,13.20
2018-03-28T15:06:18.833Z,13.20
2018-03-28T15:08:45.324Z,13.10
2018-03-28T15:11:11.845Z,13.10
2018-03-28T15:13:39.111Z,13.00
2018-03-28T15:16:05.616Z,13.00
2018-03-28T15:18:32.845Z,12.90
2018-03-28T15:20:59.347Z,12.90
2018-03-28T15:23:25.845Z,12.90
2018-03-28T15:25:53.061Z,12.80
2018-03-28T15:28:20.292Z,12.70
2018-03-28T15:30:46.833Z,12.70
2018-03-28T15:33:13.312Z,12.70
2018-03-28T15:35:39.765Z,12.60
2018-03-28T15:38:06.271Z,12.50
2018-03-28T15:40:32.736Z,12.50
2018-03-28T15:42:59.210Z,12.50
2018-03-28T15:45:25.703Z,12.50
2018-03-28T15:47:52.185Z,12.60
2018-03-28T15:50:18.701Z,12.60
2018-03-28T15:52:45.190Z,12.70
2018-03-28T15:55:12.427Z,12.70
2018-03-28T15:57:38.926Z,12.60
2018-03-28T16:00:05.418Z,12.60
2018-03-28T16:02:32.653Z,12.50
2018-03-28T16:04:59.157Z,12.50
2018-03-28T16:07:25.738Z,12.40
2018-03-28T16:09:52.970Z,12.40
2018-03-28T16:12:22.111Z,12.40
2018-03-28T16:14:48.588Z,12.30
2018-03-28T16:17:15.066Z,12.30
2018-03-28T16:19:41.639Z,12.40
2018-03-28T16:22:08.137Z,12.40
2018-03-28T16:24:34.699Z,12.30
2018-03-28T16:27:01.194Z,12.30
2018-03-28T16:29:28.421Z,12.30
2018-03-28T16:31:54.905Z,12.30
2018-03-28T16:34:21.376Z,12.30
2018-03-28T16:36:48.729Z,12.10
2018-03-28T16:39:15.215Z,12.20
2018-03-28T16:41:41.738Z,12.10
2018-03-28T16:44:08.288Z,12.10
2018-03-28T16:46:34.799Z,12.10
2018-03-28T16:49:01.266Z,12.10
2018-03-28T16:51:27.758Z,12.10
2018-03-28T16:53:54.273Z,12.10
2018-03-28T16:56:21.499Z,12.00
2018-03-28T16:58:47.995Z,12.00
2018-03-28T17:01:14.601Z,12.00
2018-03-28T17:03:41.098Z,12.00
2018-03-28T17:06:07.617Z,11.90
2018-03-28T17:08:34.142Z,11.90
2018-03-28T17:11:01.418Z,11.70
2018-03-28T17:13:27.906Z,11.70
2018-03-28T17:15:54.417Z,11.70
2018-03-28T17:18:20.883Z,11.70
2018-03-28T17:20:47.387Z,11.70
2018-03-28T17:23:13.923Z,11.70
2018-03-28T17:25:40.451Z,11.60
2018-03-28T17:28:07.761Z,11.60
2018-03-28T17:30:35.000Z,11.50
2018-03-28T17:33:02.502Z,11.50
2018-03-28T17:35:29.010Z,11.50
2018-03-28T17:37:56.281Z,11.50
2018-03-28T17:40:22.787Z,11.40
2018-03-28T17:42:49.297Z,11.40
2018-03-28T17:45:15.775Z,11.40
2018-03-28T17:47:43.019Z,11.30
2018-03-28T17:50:09.508Z,11.30
2018-03-28T17:52:35.995Z,11.30
2018-03-28T17:55:03.234Z,11.30
2018-03-28T17:57:29.727Z,11.30
2018-03-28T17:59:56.883Z,11.20
2018-03-28T18:02:23.387Z,11.20
2018-03-28T18:04:49.862Z,11.20
2018-03-28T18:07:16.352Z,11.20
2018-03-28T18:09:42.838Z,11.00
2018-03-28T18:12:09.381Z,10.80
2018-03-28T18:14:35.877Z,10.70
2018-03-28T18:17:02.381Z,10.60
2018-03-28T18:19:29.306Z,10.50
2018-03-28T18:21:55.818Z,10.50
2018-03-28T18:24:22.351Z,10.40
2018-03-28T18:26:48.898Z,10.40
2018-03-28T18:29:15.418Z,10.30
2018-03-28T18:31:41.939Z,10.30
2018-03-28T18:34:08.458Z,10.20
2018-03-28T18:36:34.973Z,10.20
2018-03-28T18:39:02.311Z,10.10
2018-03-28T18:41:28.867Z,10.10
2018-03-28T18:43:56.169Z,10.00
2018-03-28T18:46:22.818Z,10.00
2018-03-28T18:48:49.322Z,9.90
2018-03-28T18:51:15.802Z,9.90
2018-03-28T18:53:42.385Z,9.80
2018-03-28T18:56:08.926Z,9.80
2018-03-28T18:58:35.414Z,9.70
2018-03-28T19:01:01.931Z,9.70
2018-03-28T19:03:28.520Z,9.70
2018-03-28T19:05:55.030Z,9.70
2018-03-28T19:08:21.520Z,9.60
2018-03-28T19:10:48.012Z,9.50
2018-03-28T19:13:15.222Z,9.30
2018-03-28T19:15:41.713Z,9.20
2018-03-28T19:18:08.226Z,9.10
2018-03-28T19:20:34.706Z,9.10
2018-03-28T19:23:01.216Z,9.00
2018-03-28T19:25:27.742Z,9.00
2018-03-28T19:27:54.360Z,8.90
2018-03-28T19:30:20.921Z,9.00
2018-03-28T19:32:48.131Z,8.90
2018-03-28T19:35:14.612Z,8.90
2018-03-28T19:37:41.128Z,8.80
2018-03-28T19:40:07.652Z,8.80
2018-03-28T19:42:35.174Z,8.80
2018-03-28T19:45:01.685Z,8.80
2018-03-28T19:47:28.217Z,8.80
2018-03-28T19:49:54.687Z,8.70
2018-03-28T19:52:21.166Z,8.70
2018-03-28T19:54:48.374Z,8.70
2018-03-28T19:57:14.872Z,8.70
2018-03-28T19:59:41.378Z,8.70
2018-03-28T20:02:07.858Z,8.70
2018-03-28T20:04:34.492Z,8.60
2018-03-28T20:07:00.971Z,8.60
2018-03-28T20:09:27.500Z,8.70
2018-03-28T20:12:03.193Z,8.70
2018-03-28T20:14:29.895Z,8.70
2018-03-28T20:16:56.557Z,8.70
2018-03-28T20:19:24.146Z,8.60
2018-03-28T20:21:50.640Z,8.60
2018-03-28T20:24:17.238Z,8.60
2018-03-28T20:26:46.408Z,8.60
2018-03-28T20:29:13.301Z,8.60
2018-03-28T20:31:39.948Z,8.60
2018-03-28T20:34:10.985Z,8.60
2018-03-28T20:36:39.271Z,8.60
2018-03-28T20:39:05.870Z,8.60
2018-03-28T20:41:32.520Z,8.60
2018-03-28T20:44:00.005Z,8.60
2018-03-28T20:46:26.504Z,8.50
2018-03-28T20:48:53.084Z,8.50
2018-03-28T20:51:19.547Z,8.50
2018-03-28T20:53:46.074Z,8.60
2018-03-28T20:56:12.603Z,8.60
2018-03-28T20:58:39.156Z,8.60
2018-03-28T21:01:05.649Z,8.60
2018-03-28T21:03:32.138Z,8.60
2018-03-28T21:05:58.634Z,8.70
2018-03-28T21:08:25.888Z,8.70
2018-03-28T21:10:53.139Z,8.70
2018-03-28T21:13:19.645Z,8.70
2018-03-28T21:15:46.190Z,8.70
2018-03-28T21:18:12.713Z,8.70
2018-03-28T21:20:39.266Z,8.70
2018-03-28T21:23:05.874Z,8.70
2018-03-28T21:25:32.417Z,8.70
2018-03-28T21:27:58.906Z,8.70
2018-03-28T21:30:26.211Z,8.60
2018-03-28T21:32:52.778Z,8.60
2018-03-28T21:35:19.318Z,8.60
2018-03-28T21:37:45.801Z,8.50
2018-03-28T21:40:12.309Z,8.50
2018-03-28T21:42:38.815Z,8.50
2018-03-28T21:45:06.117Z,8.50
2018-03-28T21:47:32.630Z,8.50
2018-03-28T21:49:59.667Z,8.60
2018-03-28T21:52:26.896Z,8.60
2018-03-28T21:54:53.395Z,8.60
2018-03-28T21:57:19.945Z,8.60
2018-03-28T21:59:46.449Z,8.50
2018-03-28T22:02:13.066Z,8.40
2018-03-28T22:04:40.311Z,8.40
2018-03-28T22:07:07.588Z,8.40
2018-03-28T22:09:34.828Z,8.40
2018-03-28T22:12:02.177Z,8.40
2018-03-28T22:14:28.705Z,8.30
2018-03-28T22:16:55.970Z,8.30
2018-03-28T22:19:23.206Z,8.30
2018-03-28T22:21:50.415Z,8.30
2018-03-28T22:24:16.939Z,8.30
2018-03-28T22:26:43.465Z,8.30
2018-03-28T22:29:09.951Z,8.30
2018-03-28T22:31:36.442Z,8.20
2018-03-28T22:34:03.035Z,8.20
2018-03-28T22:36:30.324Z,8.10
2018-03-28T22:38:56.904Z,8.10
2018-03-28T22:41:23.410Z,8.10
2018-03-28T22:43:49.896Z,8.20
2018-03-28T22:46:16.383Z,8.30
2018-03-28T22:48:42.954Z,8.40
2018-03-28T22:51:09.448Z,8.30
2018-03-28T22:53:35.933Z,8.20
2018-03-28T22:56:02.440Z,8.20
2018-03-28T22:58:28.946Z,8.20
2018-03-28T23:00:55.415Z,8.20
2018-03-28T23:03:21.908Z,8.20
2018-03-28T23:05:48.422Z,8.20
2018-03-28T23:08:14.923Z,8.20
2018-03-28T23:10:41.411Z,8.10
2018-03-28T23:13:07.893Z,8.10
2018-03-28T23:15:34.446Z,8.10
2018-03-28T23:18:00.968Z,8.10
2018-03-28T23:20:27.447Z,8.20
2018-03-28T23:22:53.950Z,8.10
2018-03-28T23:25:21.249Z,8.10
2018-03-28T23:27:47.810Z,8.10
2018-03-28T23:30:14.282Z,8.10
2018-03-28T23:32:41.541Z,8.30
2018-03-28T23:35:08.775Z,8.40
2018-03-28T23:37:35.269Z,8.40
2018-03-28T23:40:01.754Z,8.40
2018-03-28T23:42:28.312Z,8.30
2018-03-28T23:44:54.864Z,8.20
2018-03-28T23:47:21.375Z,8.30
2018-03-28T23:49:48.678Z,8.10
2018-03-28T23:52:15.183Z,8.10
2018-03-28T23:54:41.695Z,8.10
2018-03-28T23:57:08.970Z,8.10
2018-03-28T23:59:35.487Z,8.10
